Time;durP1;ratioP1;P1;durP2;ratioP2;P2;SDS_P1;SDS_P2;PMS_P1;PMS_P2;Temp;Humidity;BMP_temperature;BMP_pressure;BME280_temperature;BME280_humidity;BME280_pressure;Samples;Min_cycle;Max_cycle;Signal;HPM_P1;HPM_P2
2023/04/15 00:01:05;;;;;;;1999.90;999.90;;;4.30;99.90;;;;;;5105956;28;20078;-71
2023/04/15 00:03:33;;;;;;;1999.90;999.90;;;4.40;99.90;;;;;;5119147;28;20117;-73
2023/04/15 00:05:58;;;;;;;1999.90;999.90;;;4.40;99.90;;;;;;5116036;28;20036;-72
2023/04/15 00:08:24;;;;;;;1999.90;999.90;;;4.40;99.90;;;;;;5092422;28;20493;-72
2023/04/15 00:10:50;;;;;;;1999.90;999.90;;;4.30;99.90;;;;;;5101905;28;20040;-72
2023/04/15 00:13:15;;;;;;;1999.90;999.90;;;4.30;99.90;;;;;;5097637;28;20036;-72
2023/04/15 00:15:42;;;;;;;1999.90;999.90;;;4.30;99.90;;;;;;5115987;28;20447;-72
2023/04/15 00:18:07;;;;;;;1999.90;999.90;;;4.30;99.90;;;;;;5115870;28;20035;-71
2023/04/15 00:20:34;;;;;;;1999.90;999.90;;;4.30;99.90;;;;;;5097261;28;20401;-71
2023/04/15 00:23:01;;;;;;;1999.90;999.90;;;4.30;99.90;;;;;;5115975;28;20036;-72
2023/04/15 00:25:27;;;;;;;1999.90;999.90;;;4.20;99.90;;;;;;5115364;28;20028;-72
2023/04/15 00:27:52;;;;;;;1999.90;999.90;;;4.20;99.90;;;;;;5115504;28;20497;-72
2023/04/15 00:30:18;;;;;;;1999.90;999.90;;;4.30;99.90;;;;;;5114164;28;20038;-72
2023/04/15 00:32:44;;;;;;;1999.90;999.90;;;4.30;99.90;;;;;;5115820;28;20078;-72
2023/04/15 00:35:11;;;;;;;1999.90;999.90;;;4.30;99.90;;;;;;5115392;28;20035;-72
2023/04/15 00:37:36;;;;;;;1999.90;999.90;;;4.20;99.90;;;;;;5115779;28;20051;-72
2023/04/15 00:40:05;;;;;;;1999.90;999.90;;;4.20;99.90;;;;;;5115409;28;20111;-72
2023/04/15 00:42:30;;;;;;;1999.90;999.90;;;4.20;99.90;;;;;;5115738;28;20086;-72
2023/04/15 00:44:56;;;;;;;1999.90;999.90;;;4.10;99.90;;;;;;5115217;28;20460;-72
2023/04/15 00:47:21;;;;;;;1999.90;999.90;;;4.00;99.90;;;;;;5091928;28;20071;-72
2023/04/15 00:49:47;;;;;;;1999.90;999.90;;;4.10;99.90;;;;;;5105457;28;20028;-72
2023/04/15 00:52:13;;;;;;;1999.90;999.90;;;4.00;99.90;;;;;;5114989;28;20093;-72
2023/04/15 00:54:38;;;;;;;1999.90;999.90;;;4.00;99.90;;;;;;5114688;28;20044;-73
2023/04/15 00:57:05;;;;;;;1999.90;999.90;;;4.00;99.90;;;;;;5115482;28;20028;-72
2023/04/15 00:59:32;;;;;;;1999.90;999.90;;;4.00;99.90;;;;;;5102190;28;20045;-72
2023/04/15 01:01:58;;;;;;;1999.90;999.90;;;3.90;99.90;;;;;;5075529;28;20044;-72
2023/04/15 01:04:24;;;;;;;1999.90;999.90;;;3.80;99.90;;;;;;5093795;28;20028;-72
2023/04/15 01:06:50;;;;;;;1999.90;999.90;;;3.80;99.90;;;;;;5094696;28;20375;-72
2023/04/15 01:09:16;;;;;;;1999.90;999.90;;;3.80;99.90;;;;;;5103164;28;20028;-73
2023/04/15 01:11:41;;;;;;;1999.90;999.90;;;3.70;99.90;;;;;;5115214;28;20032;-73
2023/04/15 01:14:08;;;;;;;1999.90;999.90;;;3.60;99.90;;;;;;5096293;28;20025;-72
2023/04/15 01:16:35;;;;;;;1999.90;999.90;;;3.70;99.90;;;;;;5115230;28;20122;-72
2023/04/15 01:19:01;;;;;;;1999.90;999.90;;;3.70;99.90;;;;;;5114882;28;20028;-72
2023/04/15 01:21:26;;;;;;;1999.90;999.90;;;3.60;99.90;;;;;;5115280;28;20047;-72
2023/04/15 01:23:54;;;;;;;1999.90;999.90;;;3.60;99.90;;;;;;5114786;28;20028;-72
2023/04/15 01:26:21;;;;;;;1999.90;999.90;;;3.60;99.90;;;;;;5115221;28;20028;-72
2023/04/15 01:28:46;;;;;;;1999.90;999.90;;;3.60;99.90;;;;;;5092962;28;20839;-72
2023/04/15 01:31:14;;;;;;;1999.90;999.90;;;3.50;99.90;;;;;;5100108;28;20075;-72
2023/04/15 01:33:42;;;;;;;1999.90;999.90;;;3.40;99.90;;;;;;5114745;28;20090;-72
2023/04/15 01:36:08;;;;;;;1999.90;999.90;;;3.40;99.90;;;;;;5114702;28;20752;-73
2023/04/15 01:38:35;;;;;;;1999.90;999.90;;;3.40;99.90;;;;;;5114912;28;20033;-72
2023/04/15 01:41:01;;;;;;;1999.90;999.90;;;3.50;99.90;;;;;;5110150;28;20040;-72
2023/04/15 01:43:27;;;;;;;1999.90;999.90;;;3.50;99.90;;;;;;5094221;28;20413;-71
2023/04/15 01:45:53;;;;;;;1999.90;999.90;;;3.40;99.90;;;;;;5094358;28;20037;-72
2023/04/15 01:48:18;;;;;;;1999.90;999.90;;;3.40;99.90;;;;;;5108852;28;20036;-72
2023/04/15 01:50:45;;;;;;;1999.90;999.90;;;3.40;99.90;;;;;;5114938;28;20032;-71
2023/04/15 01:53:10;;;;;;;1999.90;999.90;;;3.30;99.90;;;;;;5114978;28;20024;-72
2023/04/15 01:55:36;;;;;;;1999.90;999.90;;;3.20;99.90;;;;;;5105717;28;20508;-72
2023/04/15 01:58:02;;;;;;;1999.90;999.90;;;3.10;99.90;;;;;;5094433;28;20185;-72
2023/04/15 02:00:28;;;;;;;1999.90;999.90;;;3.00;99.90;;;;;;5111495;28;20044;-72
2023/04/15 02:02:54;;;;;;;1999.90;999.90;;;3.00;99.90;;;;;;5114357;28;20037;-72
2023/04/15 02:05:19;;;;;;;1999.90;999.90;;;3.10;99.90;;;;;;5114214;28;20028;-72
2023/04/15 02:07:45;;;;;;;1999.90;999.90;;;3.20;99.90;;;;;;5101052;28;20056;-72
2023/04/15 02:10:12;;;;;;;1999.90;999.90;;;3.20;99.90;;;;;;5094386;28;20094;-72
2023/04/15 02:12:38;;;;;;;1999.90;999.90;;;3.20;99.90;;;;;;5094257;28;20551;-73
2023/04/15 02:15:04;;;;;;;1999.90;999.90;;;3.30;99.90;;;;;;5097444;28;20088;-71
2023/04/15 02:17:33;;;;;;;1999.90;999.90;;;3.30;99.90;;;;;;5097399;28;20036;-72
2023/04/15 02:19:59;;;;;;;1999.90;999.90;;;3.30;99.90;;;;;;5112317;28;20114;-72
2023/04/15 02:22:25;;;;;;;1999.90;999.90;;;3.30;99.90;;;;;;5117742;28;20118;-72
2023/04/15 02:24:50;;;;;;;1999.90;999.90;;;3.40;99.90;;;;;;5117448;28;20036;-72
2023/04/15 02:27:17;;;;;;;1999.90;999.90;;;3.30;99.90;;;;;;5118106;28;20101;-71
2023/04/15 02:29:44;;;;;;;1999.90;999.90;;;3.30;99.90;;;;;;5105250;28;20517;-72
2023/04/15 02:32:11;;;;;;;1999.90;999.90;;;3.30;99.90;;;;;;5112276;28;20525;-71
2023/04/15 02:34:40;;;;;;;1999.90;999.90;;;3.30;99.90;;;;;;5117089;28;20036;-72
2023/04/15 02:37:06;;;;;;;1999.90;999.90;;;3.30;99.90;;;;;;5117853;28;20032;-72
2023/04/15 02:39:32;;;;;;;1999.90;999.90;;;3.30;99.90;;;;;;5106890;28;20486;-72
2023/04/15 02:41:59;;;;;;;1999.90;999.90;;;3.20;99.90;;;;;;5097336;28;20040;-72
2023/04/15 02:44:25;;;;;;;1999.90;999.90;;;3.20;99.90;;;;;;5112767;28;20032;-71
2023/04/15 02:46:52;;;;;;;1999.90;999.90;;;3.10;99.90;;;;;;5117670;28;20032;-72
2023/04/15 02:49:17;;;;;;;1999.90;999.90;;;3.10;99.90;;;;;;5090423;28;20041;-71
2023/04/15 02:51:48;;;;;;;1999.90;999.90;;;3.00;99.90;;;;;;5096981;28;20032;-72
2023/04/15 02:54:14;;;;;;;1999.90;999.90;;;3.00;99.90;;;;;;5096621;28;20070;-71
2023/04/15 02:56:40;;;;;;;1999.90;999.90;;;3.00;99.90;;;;;;5097414;28;20062;-72
2023/04/15 02:59:05;;;;;;;1999.90;999.90;;;3.00;99.90;;;;;;5103229;28;20036;-71
2023/04/15 03:01:31;;;;;;;1999.90;999.90;;;3.00;99.90;;;;;;5116985;28;20047;-73
2023/04/15 03:03:56;;;;;;;1999.90;999.90;;;3.00;99.90;;;;;;5116803;28;20032;-71
2023/04/15 03:06:23;;;;;;;1999.90;999.90;;;2.90;99.90;;;;;;5080096;28;20398;-71
2023/04/15 03:08:49;;;;;;;1999.90;999.90;;;2.90;99.90;;;;;;5097901;28;20032;-72
2023/04/15 03:11:15;;;;;;;1999.90;999.90;;;3.00;99.90;;;;;;5096881;28;20033;-72
2023/04/15 03:13:42;;;;;;;1999.90;999.90;;;3.10;99.90;;;;;;5096229;28;20035;-72
2023/04/15 03:16:08;;;;;;;1999.90;999.90;;;3.10;99.90;;;;;;5096712;28;20119;-72
2023/04/15 03:18:33;;;;;;;1999.90;999.90;;;3.10;99.90;;;;;;5108389;28;20032;-72
2023/04/15 03:20:59;;;;;;;1999.90;999.90;;;3.10;99.90;;;;;;5117197;28;20032;-72
2023/04/15 03:23:25;;;;;;;1999.90;999.90;;;3.20;99.90;;;;;;5116979;28;20537;-72
2023/04/15 03:25:50;;;;;;;1999.90;999.90;;;3.30;99.90;;;;;;5115805;27;20028;-71
2023/04/15 03:28:16;;;;;;;1999.90;999.90;;;3.20;99.90;;;;;;5098361;28;20036;-71
2023/04/15 03:30:41;;;;;;;1999.90;999.90;;;3.30;99.90;;;;;;5097359;28;20025;-72
2023/04/15 03:33:07;;;;;;;1999.90;999.90;;;3.30;99.90;;;;;;5096552;28;20111;-72
2023/04/15 03:35:33;;;;;;;1999.90;999.90;;;3.30;99.90;;;;;;5096007;28;20043;-72
2023/04/15 03:37:59;;;;;;;1999.90;999.90;;;3.30;99.90;;;;;;5096347;28;20095;-72
2023/04/15 03:40:24;;;;;;;1999.90;999.90;;;3.40;99.90;;;;;;5112762;28;20481;-72
2023/04/15 03:42:50;;;;;;;1999.90;999.90;;;3.40;99.90;;;;;;5098063;28;20490;-73
2023/04/15 03:45:15;;;;;;;1999.90;999.90;;;3.50;99.90;;;;;;5095984;28;20679;-72
2023/04/15 03:47:41;;;;;;;1999.90;999.90;;;3.50;99.90;;;;;;5095924;28;20037;-71
2023/04/15 03:50:07;;;;;;;1999.90;999.90;;;3.40;99.90;;;;;;5110006;28;20032;-72
2023/04/15 03:52:32;;;;;;;1999.90;999.90;;;3.30;99.90;;;;;;5101153;28;20032;-73
2023/04/15 03:54:58;;;;;;;1999.90;999.90;;;3.20;99.90;;;;;;5127199;22;20118;-78
2023/04/15 03:57:24;;;;;;;1999.90;999.90;;;3.20;99.90;;;;;;5117033;28;20124;-77
2023/04/15 03:59:50;;;;;;;1999.90;999.90;;;3.10;99.90;;;;;;5098047;28;20024;-78
2023/04/15 04:02:16;;;;;;;1999.90;999.90;;;3.20;99.90;;;;;;5098008;28;20554;-78
2023/04/15 04:04:42;;;;;;;1999.90;999.90;;;3.20;99.90;;;;;;5097974;28;20028;-78
2023/04/15 04:07:08;;;;;;;1999.90;999.90;;;3.20;99.90;;;;;;5098097;28;20036;-78
2023/04/15 04:09:33;;;;;;;1999.90;999.90;;;3.20;99.90;;;;;;5097979;28;20032;-78
2023/04/15 04:12:00;;;;;;;1999.90;999.90;;;3.20;99.90;;;;;;5094747;28;20040;-78
2023/04/15 04:14:28;;;;;;;1999.90;999.90;;;3.10;99.90;;;;;;5088457;28;20119;-77
2023/04/15 04:16:54;;;;;;;1999.90;999.90;;;3.00;99.90;;;;;;5077637;28;20473;-78
2023/04/15 04:19:20;;;;;;;1999.90;999.90;;;2.90;99.90;;;;;;5077492;28;20115;-78
2023/04/15 04:21:45;;;;;;;1999.90;999.90;;;3.00;99.90;;;;;;5077490;28;20420;-78
2023/04/15 04:24:11;;;;;;;1999.90;999.90;;;3.00;99.90;;;;;;5076788;28;20021;-78
2023/04/15 04:26:36;;;;;;;1999.90;999.90;;;2.90;99.90;;;;;;5095678;28;20036;-78
2023/04/15 04:29:02;;;;;;;1999.90;999.90;;;2.80;99.90;;;;;;5095714;28;20111;-78
2023/04/15 04:31:28;;;;;;;1999.90;999.90;;;2.60;99.90;;;;;;5077339;28;20036;-78
2023/04/15 04:33:53;;;;;;;1999.90;999.90;;;2.70;99.90;;;;;;5095241;28;20097;-78
2023/04/15 04:36:19;;;;;;;1999.90;999.90;;;2.60;99.90;;;;;;5095369;28;20113;-78
2023/04/15 04:38:44;;;;;;;1999.90;999.90;;;2.60;99.90;;;;;;5115190;28;20499;-78
2023/04/15 04:41:10;;;;;;;1999.90;999.90;;;2.60;99.90;;;;;;5095604;28;20501;-78
2023/04/15 04:43:36;;;;;;;1999.90;999.90;;;2.70;99.90;;;;;;5077177;28;20128;-78
2023/04/15 04:46:01;;;;;;;1999.90;999.90;;;2.60;99.90;;;;;;5076534;28;20040;-78
2023/04/15 04:48:27;;;;;;;1999.90;999.90;;;2.50;99.90;;;;;;5096585;28;20113;-78
2023/04/15 04:50:52;;;;;;;1999.90;999.90;;;2.50;99.90;;;;;;5097276;28;20504;-78
2023/04/15 04:53:18;;;;;;;1999.90;999.90;;;2.50;99.90;;;;;;5097236;28;20485;-77
2023/04/15 04:55:43;;;;;;;1999.90;999.90;;;2.50;99.90;;;;;;5096866;28;20070;-77
2023/04/15 04:58:09;;;;;;;1999.90;999.90;;;2.60;99.90;;;;;;5099088;28;20032;-78
2023/04/15 05:00:36;;;;;;;1999.90;999.90;;;2.60;99.90;;;;;;5091543;28;20033;-80
2023/04/15 05:03:02;;;;;;;1999.90;999.90;;;2.60;99.90;;;;;;5104278;28;20533;-79
2023/04/15 05:05:28;;;;;;;1999.90;999.90;;;2.60;99.90;;;;;;5086022;28;20096;-80
2023/04/15 05:07:53;;;;;;;1999.90;999.90;;;2.70;99.90;;;;;;5102343;28;20048;-79
2023/04/15 05:10:19;;;;;;;1999.90;999.90;;;2.60;99.90;;;;;;5095966;28;20039;-79
2023/04/15 05:12:45;;;;;;;1999.90;999.90;;;2.50;99.90;;;;;;5119186;28;20047;-78
2023/04/15 05:15:11;;;;;;;1999.90;999.90;;;2.50;99.90;;;;;;5100831;28;20158;-80
2023/04/15 05:17:36;;;;;;;1999.90;999.90;;;2.50;99.90;;;;;;5106265;28;20039;-80
2023/04/15 05:20:02;;;;;;;1999.90;999.90;;;2.50;99.90;;;;;;5105722;28;20371;-80
2023/04/15 05:22:28;;;;;;;1999.90;999.90;;;2.50;99.90;;;;;;5107451;28;20068;-79
2023/04/15 05:24:53;;;;;;;1999.90;999.90;;;2.60;99.90;;;;;;5084589;28;20057;-80
2023/04/15 05:27:19;;;;;;;1999.90;999.90;;;2.70;99.90;;;;;;5103673;28;20036;-80
2023/04/15 05:29:45;;;;;;;1999.90;999.90;;;2.60;99.90;;;;;;5085457;28;20100;-80
2023/04/15 05:32:10;;;;;;;1999.90;999.90;;;2.60;99.90;;;;;;5080233;28;20422;-78
2023/04/15 05:34:36;;;;;;;1999.90;999.90;;;2.60;99.90;;;;;;5091937;28;20036;-78
2023/04/15 05:37:02;;;;;;;1999.90;999.90;;;2.60;99.90;;;;;;5096982;28;20407;-78
2023/04/15 05:39:27;;;;;;;1999.90;999.90;;;2.70;99.90;;;;;;5082477;28;20032;-78
2023/04/15 05:41:53;;;;;;;1999.90;999.90;;;2.70;99.90;;;;;;5076608;28;20105;-78
2023/04/15 05:44:18;;;;;;;1999.90;999.90;;;2.90;99.90;;;;;;5076213;28;20187;-78
2023/04/15 05:46:44;;;;;;;1999.90;999.90;;;3.00;99.90;;;;;;5096242;28;20615;-77
2023/04/15 05:49:10;;;;;;;1999.90;999.90;;;3.00;99.90;;;;;;5084966;28;20118;-78
2023/04/15 05:51:35;;;;;;;1999.90;999.90;;;3.10;99.90;;;;;;5110739;28;20048;-78
2023/04/15 05:54:01;;;;;;;1999.90;999.90;;;3.10;99.90;;;;;;5079608;28;20028;-78
2023/04/15 05:56:26;;;;;;;1999.90;999.90;;;3.20;99.90;;;;;;5080603;28;20033;-79
2023/04/15 05:58:52;;;;;;;1999.90;999.90;;;3.20;99.90;;;;;;5083391;28;20087;-79
2023/04/15 06:01:17;;;;;;;1999.90;999.90;;;3.30;99.90;;;;;;5102313;28;20051;-78
2023/04/15 06:03:43;;;;;;;1999.90;999.90;;;3.40;99.90;;;;;;5120376;28;20697;-78
2023/04/15 06:06:09;;;;;;;1999.90;999.90;;;3.50;99.90;;;;;;5104283;28;20032;-78
2023/04/15 06:08:34;;;;;;;1999.90;999.90;;;3.70;99.90;;;;;;5102244;28;20068;-78
2023/04/15 06:11:00;;;;;;;1999.90;999.90;;;3.70;99.90;;;;;;5104749;28;20051;-79
2023/04/15 06:13:26;;;;;;;1999.90;999.90;;;3.90;99.90;;;;;;5086180;28;20039;-80
2023/04/15 06:15:52;;;;;;;1999.90;999.90;;;4.00;99.90;;;;;;5102752;28;20033;-80
2023/04/15 06:18:19;;;;;;;1999.90;999.90;;;4.10;99.90;;;;;;5102374;28;20186;-80
2023/04/15 06:20:45;;;;;;;1999.90;999.90;;;4.30;99.90;;;;;;5093827;28;20028;-80
2023/04/15 06:23:11;;;;;;;1999.90;999.90;;;4.50;99.90;;;;;;5108052;28;20051;-81
2023/04/15 06:25:36;;;;;;;1999.90;999.90;;;4.70;99.90;;;;;;5106973;28;20028;-79
2023/04/15 06:28:02;;;;;;;1999.90;999.90;;;4.80;99.90;;;;;;5104713;28;20481;-81
2023/04/15 06:30:27;;;;;;;1999.90;999.90;;;5.00;99.90;;;;;;5107121;28;20305;-79
2023/04/15 06:32:54;;;;;;;1999.90;999.90;;;5.20;99.90;;;;;;5105080;28;20040;-80
2023/04/15 06:35:20;;;;;;;1999.90;999.90;;;5.40;99.90;;;;;;5105021;28;20029;-79
2023/04/15 06:37:46;;;;;;;1999.90;999.90;;;5.50;99.90;;;;;;5103847;28;20032;-77
2023/04/15 06:40:12;;;;;;;1999.90;999.90;;;5.70;99.90;;;;;;5123018;28;20031;-80
2023/04/15 06:42:38;;;;;;;1999.90;999.90;;;5.70;99.90;;;;;;5101900;28;20066;-79
2023/04/15 06:45:04;;;;;;;1999.90;999.90;;;5.70;99.90;;;;;;5104081;28;20024;-80
2023/04/15 06:47:30;;;;;;;1999.90;999.90;;;5.80;99.90;;;;;;5123340;28;20051;-80
2023/04/15 06:49:55;;;;;;;1999.90;999.90;;;5.90;99.90;;;;;;5102201;28;20516;-80
2023/04/15 06:52:21;;;;;;;1999.90;999.90;;;5.90;99.90;;;;;;5121242;28;20040;-81
2023/04/15 06:54:46;;;;;;;1999.90;999.90;;;5.90;99.90;;;;;;5084455;28;20040;-81
2023/04/15 06:57:12;;;;;;;1999.90;999.90;;;5.90;99.90;;;;;;5084166;28;20047;-81
2023/04/15 06:59:37;;;;;;;1999.90;999.90;;;6.00;99.90;;;;;;5084143;28;20056;-81
2023/04/15 07:02:03;;;;;;;1999.90;999.90;;;6.10;99.90;;;;;;5088632;28;20047;-81
2023/04/15 07:04:29;;;;;;;1999.90;999.90;;;6.30;99.90;;;;;;5084988;28;20035;-81
2023/04/15 07:06:55;;;;;;;1999.90;999.90;;;6.60;99.90;;;;;;5084975;28;20051;-81
2023/04/15 07:09:22;;;;;;;1999.90;999.90;;;6.90;99.90;;;;;;5104596;28;20504;-81
2023/04/15 07:11:48;;;;;;;1999.90;999.90;;;7.10;99.90;;;;;;5115340;28;20043;-80
2023/04/15 07:14:14;;;;;;;1999.90;999.90;;;7.20;99.90;;;;;;5084459;28;20021;-81
2023/04/15 07:16:39;;;;;;;1999.90;999.90;;;7.30;99.90;;;;;;5102592;28;20374;-81
2023/04/15 07:19:05;;;;;;;1999.90;999.90;;;7.20;99.90;;;;;;5084908;28;20355;-81
2023/04/15 07:21:31;;;;;;;1999.90;999.90;;;7.30;99.90;;;;;;5103080;28;20064;-82
2023/04/15 07:23:57;;;;;;;1999.90;999.90;;;7.30;99.90;;;;;;5083912;28;20493;-80
2023/04/15 07:26:23;;;;;;;1999.90;999.90;;;7.50;99.90;;;;;;5087475;28;20028;-80
2023/04/15 07:28:49;;;;;;;1999.90;999.90;;;7.70;99.90;;;;;;5105149;28;20030;-81
2023/04/15 07:31:16;;;;;;;1999.90;999.90;;;7.80;99.90;;;;;;5105246;28;20082;-83
2023/04/15 07:33:44;;;;;;;1999.90;999.90;;;7.90;99.90;;;;;;5084756;28;20025;-82
2023/04/15 07:36:09;;;;;;;1999.90;999.90;;;8.10;99.90;;;;;;5087055;28;20032;-83
2023/04/15 07:38:35;;;;;;;1999.90;999.90;;;8.30;99.90;;;;;;5091970;28;20032;-82
2023/04/15 07:41:01;;;;;;;1999.90;999.90;;;8.40;99.90;;;;;;5100077;28;20112;-83
2023/04/15 07:43:26;;;;;;;1999.90;999.90;;;8.60;99.90;;;;;;5084480;28;20502;-82
2023/04/15 07:45:52;;;;;;;1999.90;999.90;;;8.80;99.90;;;;;;5103360;28;20053;-82
2023/04/15 07:48:18;;;;;;;1999.90;999.90;;;8.90;99.90;;;;;;5085784;28;20072;-81
2023/04/15 07:50:43;;;;;;;1999.90;999.90;;;8.90;99.90;;;;;;5097272;28;20033;-81
2023/04/15 07:53:09;;;;;;;1999.90;999.90;;;8.80;99.90;;;;;;5088447;28;20058;-82
2023/04/15 07:55:34;;;;;;;1999.90;999.90;;;8.80;99.90;;;;;;5087349;28;20034;-82
2023/04/15 07:58:00;;;;;;;1999.90;999.90;;;8.90;99.90;;;;;;5105004;28;20032;-82
2023/04/15 08:00:27;;;;;;;1999.90;999.90;;;9.10;99.90;;;;;;5085315;28;20036;-81
2023/04/15 08:02:52;;;;;;;1999.90;999.90;;;9.20;99.90;;;;;;5085933;28;20093;-82
2023/04/15 08:05:18;;;;;;;1999.90;999.90;;;9.40;99.90;;;;;;5084404;28;20119;-82
2023/04/15 08:07:44;;;;;;;1999.90;999.90;;;9.60;99.90;;;;;;5083924;28;20036;-85
2023/04/15 08:10:10;;;;;;;1999.90;999.90;;;9.50;99.90;;;;;;5081553;28;20432;-83
2023/04/15 08:12:36;;;;;;;1999.90;999.90;;;9.50;99.90;;;;;;5081805;28;20028;-83
2023/04/15 08:15:02;;;;;;;1999.90;999.90;;;9.70;99.90;;;;;;5082896;28;20033;-83
2023/04/15 08:17:28;;;;;;;1999.90;999.90;;;9.90;99.90;;;;;;5083449;28;20060;-81
2023/04/15 08:19:53;;;;;;;1999.90;999.90;;;10.20;99.90;;;;;;5088152;28;20427;-84
2023/04/15 08:22:19;;;;;;;1999.90;999.90;;;10.40;99.90;;;;;;5093427;28;20047;-82
2023/04/15 08:24:45;;;;;;;1999.90;999.90;;;10.50;99.90;;;;;;5101419;28;20158;-85
2023/04/15 08:27:11;;;;;;;1999.90;999.90;;;10.60;99.90;;;;;;5084445;28;20119;-81
2023/04/15 08:29:36;;;;;;;1999.90;999.90;;;10.70;99.90;;;;;;5104479;28;20039;-80
2023/04/15 08:32:02;;;;;;;1999.90;999.90;;;11.00;99.90;;;;;;5098682;28;20492;-84
2023/04/15 08:34:28;;;;;;;1999.90;999.90;;;10.90;99.90;;;;;;5099206;28;20624;-84
2023/04/15 08:36:55;;;;;;;1999.90;999.90;;;10.70;99.90;;;;;;5100730;28;20123;-84
2023/04/15 08:39:27;;;;;;;1999.90;999.90;;;10.90;99.90;;;;;;5101045;28;20497;-85
2023/04/15 08:42:01;;;;;;;1999.90;999.90;;;11.30;99.90;;;;;;5084697;28;20040;-84
2023/04/15 08:44:32;;;;;;;1999.90;999.90;;;11.40;99.90;;;;;;5080846;28;20043;-85
2023/04/15 08:47:01;;;;;;;1999.90;999.90;;;11.40;99.90;;;;;;5081853;28;20037;-86
2023/04/15 08:49:28;;;;;;;1999.90;999.90;;;11.50;99.90;;;;;;5082131;28;20032;-80
2023/04/15 08:51:57;;;;;;;1999.90;999.90;;;11.70;99.90;;;;;;5081982;28;20086;-86
2023/04/15 08:54:22;;;;;;;1999.90;999.90;;;11.90;99.90;;;;;;5105692;28;20032;-79
2023/04/15 08:56:49;;;;;;;1999.90;999.90;;;12.00;99.90;;;;;;5101669;28;20035;-82
2023/04/15 08:59:15;;;;;;;1999.90;999.90;;;12.10;99.90;;;;;;5109421;28;20035;-83
2023/04/15 09:01:42;;;;;;;1999.90;999.90;;;12.30;99.90;;;;;;5093184;28;20032;-84
2023/04/15 09:04:08;;;;;;;1999.90;999.90;;;12.30;99.90;;;;;;5087157;28;20036;-82
2023/04/15 09:06:33;;;;;;;1999.90;999.90;;;12.30;99.90;;;;;;5101066;28;20028;-83
2023/04/15 09:08:59;;;;;;;1999.90;999.90;;;12.40;99.90;;;;;;5100366;28;20123;-85
2023/04/15 09:11:25;;;;;;;1999.90;999.90;;;12.50;99.90;;;;;;5096547;28;20040;-84
2023/04/15 09:13:51;;;;;;;1999.90;999.90;;;12.70;99.90;;;;;;5097395;28;20036;-85
2023/04/15 09:16:17;;;;;;;1999.90;999.90;;;13.00;99.90;;;;;;5088128;28;20036;-86
2023/04/15 09:18:43;;;;;;;1999.90;999.90;;;13.30;99.90;;;;;;5104555;28;20836;-85
2023/04/15 09:21:14;;;;;;;1999.90;999.90;;;13.60;99.90;;;;;;5094242;28;20032;-85
2023/04/15 09:23:57;;;;;;;1999.90;999.90;;;13.60;99.90;;;;;;5089279;28;20032;-84
2023/04/15 09:26:36;;;;;;;1999.90;999.90;;;13.40;99.90;;;;;;5084020;28;20036;-82
2023/04/15 09:29:09;;;;;;;1999.90;999.90;;;13.10;99.70;;;;;;5085621;28;20116;-84
2023/04/15 09:31:38;;;;;;;1999.90;999.90;;;13.30;99.70;;;;;;5101780;28;20124;-83
2023/04/15 09:34:05;;;;;;;1999.90;999.90;;;13.30;99.30;;;;;;5083852;28;20028;-84
2023/04/15 09:36:46;;;;;;;1999.90;999.90;;;13.50;99.20;;;;;;5096157;28;20032;-83
2023/04/15 09:39:13;;;;;;;1999.90;999.90;;;13.80;98.20;;;;;;5095422;28;20032;-83
2023/04/15 09:41:39;;;;;;;1999.90;999.90;;;14.00;97.70;;;;;;5118160;28;20086;-85
2023/04/15 09:44:05;;;;;;;1999.90;999.90;;;14.20;97.50;;;;;;5087096;28;20187;-84
2023/04/15 09:46:42;;;;;;;1999.90;999.90;;;14.30;97.80;;;;;;5094712;28;20197;-85
2023/04/15 09:49:09;;;;;;;1999.90;999.90;;;14.60;96.80;;;;;;5104375;28;20167;-84
2023/04/15 09:51:35;;;;;;;1999.90;999.90;;;14.80;97.00;;;;;;5102489;28;20032;-85
2023/04/15 09:54:01;;;;;;;1999.90;999.90;;;14.60;96.30;;;;;;5082861;28;20576;-85
2023/04/15 09:56:36;;;;;;;1999.90;999.90;;;14.60;97.10;;;;;;5084783;22;20562;-73
2023/04/15 09:59:02;;;;;;;1999.90;999.90;;;14.60;96.20;;;;;;5077256;28;20048;-73
2023/04/15 10:01:28;;;;;;;1999.90;999.90;;;15.10;95.70;;;;;;5057643;28;20095;-74
2023/04/15 10:03:56;;;;;;;1999.90;999.90;;;15.30;95.10;;;;;;5059719;28;20487;-73
2023/04/15 10:06:24;;;;;;;1999.90;999.90;;;15.30;94.50;;;;;;5057403;28;20033;-74
2023/04/15 10:08:50;;;;;;;1999.90;999.90;;;15.80;93.10;;;;;;5033446;28;20037;-74
2023/04/15 10:11:17;;;;;;;1999.90;999.90;;;15.90;94.00;;;;;;5042879;28;20403;-74
2023/04/15 10:13:45;;;;;;;1999.90;999.90;;;16.20;92.70;;;;;;5059434;28;20029;-74
2023/04/15 10:16:14;;;;;;;1999.90;999.90;;;16.30;91.60;;;;;;5068533;28;20490;-74
2023/04/15 10:18:50;;;;;;;1999.90;999.90;;;16.30;91.50;;;;;;5069342;28;20025;-75
2023/04/15 10:21:17;;;;;;;1999.90;999.90;;;16.00;94.00;;;;;;5062991;28;20597;-75
2023/04/15 10:23:44;;;;;;;1999.90;999.90;;;16.10;91.80;;;;;;5056252;28;20478;-75
2023/04/15 10:26:11;;;;;;;1999.90;999.90;;;15.90;92.40;;;;;;5059948;28;20033;-77
2023/04/15 10:28:37;;;;;;;1999.90;999.90;;;16.10;91.80;;;;;;5059092;28;20044;-75
2023/04/15 10:31:04;;;;;;;1999.90;999.90;;;16.00;91.70;;;;;;5048729;28;20029;-78
2023/04/15 10:33:30;;;;;;;1999.90;999.90;;;15.60;91.60;;;;;;5044621;28;20041;-76
2023/04/15 10:35:56;;;;;;;1999.90;999.90;;;16.00;92.20;;;;;;5057036;28;20049;-75
2023/04/15 10:38:41;;;;;;;1999.90;999.90;;;16.30;91.20;;;;;;5066138;28;20049;-76
2023/04/15 10:41:21;;;;;;;1999.90;999.90;;;16.40;90.90;;;;;;5072987;28;20509;-75
2023/04/15 10:43:50;;;;;;;1999.90;999.90;;;16.40;90.90;;;;;;5058830;28;20086;-75
2023/04/15 10:46:23;;;;;;;1999.90;999.90;;;16.10;91.80;;;;;;5066936;28;20195;-77
2023/04/15 10:48:51;;;;;;;1999.90;999.90;;;16.00;91.70;;;;;;5020540;28;20041;-77
2023/04/15 10:51:27;;;;;;;1999.90;999.90;;;16.00;92.10;;;;;;5070323;28;20108;-74
2023/04/15 10:53:57;;;;;;;1999.90;999.90;;;15.90;91.20;;;;;;5070547;28;20036;-76
2023/04/15 10:56:23;;;;;;;1999.90;999.90;;;15.80;91.50;;;;;;5061482;28;20529;-75
2023/04/15 10:58:48;;;;;;;1999.90;999.90;;;15.60;92.10;;;;;;5064892;28;20041;-75
2023/04/15 11:01:14;;;;;;;1999.90;999.90;;;15.50;92.10;;;;;;5032337;28;20483;-74
2023/04/15 11:03:41;;;;;;;1999.90;999.90;;;15.00;92.00;;;;;;5046743;28;20046;-76
2023/04/15 11:06:07;;;;;;;1999.90;999.90;;;14.60;93.90;;;;;;5050347;28;20091;-75
2023/04/15 11:09:01;;;;;;;1999.90;999.90;;;14.60;93.60;;;;;;5056430;28;20140;-77
2023/04/15 11:12:05;;;;;;;1999.90;999.90;;;14.80;94.50;;;;;;5057075;28;20083;-75
2023/04/15 11:14:33;;;;;;;1999.90;999.90;;;14.60;93.80;;;;;;5051266;28;20042;-76
2023/04/15 11:16:58;;;;;;;1999.90;999.90;;;14.60;93.10;;;;;;5043495;28;20136;-76
2023/04/15 11:19:24;;;;;;;1999.90;999.90;;;14.60;94.30;;;;;;5056068;28;20124;-77
2023/04/15 11:21:51;;;;;;;1999.90;999.90;;;14.90;94.60;;;;;;5052574;28;20491;-77
2023/04/15 11:24:26;;;;;;;1999.90;999.90;;;15.10;92.80;;;;;;5052178;28;20029;-75
2023/04/15 11:26:57;;;;;;;1999.90;999.90;;;15.50;90.50;;;;;;5054407;28;20072;-76
2023/04/15 11:29:31;;;;;;;1999.90;999.90;;;15.60;87.70;;;;;;5050787;28;20088;-77
2023/04/15 11:32:05;;;;;;;1999.90;999.90;;;15.40;91.30;;;;;;5043079;28;20418;-77
2023/04/15 11:34:31;;;;;;;1999.90;999.90;;;15.60;83.00;;;;;;5059449;28;20032;-74
2023/04/15 11:36:57;;;;;;;1999.90;999.90;;;15.70;79.20;;;;;;5060029;28;20037;-75
2023/04/15 11:39:22;;;;;;;1999.90;999.90;;;15.80;77.20;;;;;;5054164;28;20038;-75
2023/04/15 11:41:48;;;;;;;1999.90;999.90;;;16.00;80.30;;;;;;5075306;28;20033;-76
2023/04/15 11:44:17;;;;;;;1999.90;999.90;;;16.10;76.90;;;;;;5061088;28;20045;-75
2023/04/15 11:46:43;;;;;;;1999.90;999.90;;;15.90;75.50;;;;;;5041065;28;20040;-76
2023/04/15 11:49:09;;;;;;;1999.90;999.90;;;16.30;74.40;;;;;;5053107;28;20048;-77
2023/04/15 11:51:35;;;;;;;1999.90;999.90;;;16.00;75.90;;;;;;5046226;28;20486;-77
2023/04/15 11:54:01;;;;;;;1999.90;999.90;;;16.20;75.80;;;;;;5042332;28;20531;-77
2023/04/15 11:56:26;;;;;;;1999.90;999.90;;;16.00;75.80;;;;;;5024345;28;20038;-76
2023/04/15 11:58:58;;;;;;;1999.90;999.90;;;16.20;74.10;;;;;;5017969;28;20052;-76
2023/04/15 12:01:34;;;;;;;1999.90;999.90;;;15.80;76.10;;;;;;5035767;28;20042;-76
2023/04/15 12:04:02;;;;;;;1999.90;999.90;;;15.50;78.10;;;;;;5035088;28;20539;-76